Time;durP1;ratioP1;P1;durP2;ratioP2;P2;SDS_P1;SDS_P2;PMS_P1;PMS_P2;Temp;Humidity;BMP_temperature;BMP_pressure;BME280_temperature;BME280_humidity;BME280_pressure;Samples;Min_cycle;Max_cycle;Signal;HPM_P1;HPM_P2
2021/04/19 00:01:26;;;;;;;16.55;11.35;;;13.80;57.80;;;;;;6219263;23;20025;-76
2021/04/19 00:03:51;;;;;;;14.77;11.13;;;13.80;57.90;;;;;;6228320;23;20017;-76
2021/04/19 00:06:17;;;;;;;14.15;10.70;;;13.80;57.90;;;;;;6228803;23;20024;-76
2021/04/19 00:08:43;;;;;;;15.73;11.27;;;13.70;57.90;;;;;;6229602;23;20263;-76
2021/04/19 00:11:09;;;;;;;16.02;10.85;;;13.70;57.90;;;;;;6228475;23;20054;-77
2021/04/19 00:13:35;;;;;;;17.58;11.70;;;13.70;57.90;;;;;;6228407;23;20012;-77
2021/04/19 00:16:01;;;;;;;16.02;11.50;;;13.70;57.90;;;;;;6218552;23;20017;-76
2021/04/19 00:18:26;;;;;;;14.65;10.55;;;13.60;57.90;;;;;;6218141;23;20020;-76
2021/04/19 00:20:52;;;;;;;13.80;9.98;;;13.60;58.00;;;;;;6228564;23;20008;-77
2021/04/19 00:23:18;;;;;;;14.95;10.27;;;13.60;58.10;;;;;;6228947;23;20406;-76
2021/04/19 00:25:44;;;;;;;16.45;9.98;;;13.60;58.20;;;;;;6228551;23;20047;-77
2021/04/19 00:28:10;;;;;;;16.77;10.07;;;13.60;58.30;;;;;;6220352;23;20020;-76
2021/04/19 00:30:36;;;;;;;12.55;9.15;;;13.60;58.30;;;;;;6228745;23;20268;-77
2021/04/19 00:33:02;;;;;;;13.23;9.40;;;13.60;58.40;;;;;;6227940;23;20020;-77
2021/04/19 00:35:28;;;;;;;14.55;9.32;;;13.60;58.40;;;;;;6218331;23;20099;-77
2021/04/19 00:37:54;;;;;;;14.18;9.20;;;13.60;58.50;;;;;;6228458;23;20098;-76
2021/04/19 00:40:20;;;;;;;13.45;9.63;;;13.50;58.50;;;;;;6228112;23;20413;-76
2021/04/19 00:42:49;;;;;;;13.20;8.93;;;13.60;58.60;;;;;;6228471;23;20012;-77
2021/04/19 00:45:16;;;;;;;13.55;9.00;;;13.50;58.60;;;;;;6217822;23;20092;-77
2021/04/19 00:47:45;;;;;;;13.90;9.13;;;13.50;58.60;;;;;;6218167;23;20027;-76
2021/04/19 00:50:17;;;;;;;13.32;9.32;;;13.50;58.50;;;;;;6218980;23;20020;-75
2021/04/19 00:52:44;;;;;;;12.88;9.13;;;13.50;58.50;;;;;;6228889;23;20024;-76
2021/04/19 00:55:13;;;;;;;13.75;9.30;;;13.50;58.40;;;;;;6227969;23;20438;-76
2021/04/19 00:57:39;;;;;;;13.60;8.75;;;13.50;58.50;;;;;;6218212;23;20318;-76
2021/04/19 01:00:10;;;;;;;13.80;8.10;;;13.50;58.60;;;;;;6218227;23;20067;-77
2021/04/19 01:02:40;;;;;;;12.30;8.15;;;13.50;58.70;;;;;;6228253;23;20069;-75
2021/04/19 01:05:22;;;;;;;14.73;8.70;;;13.50;58.80;;;;;;6228889;23;20016;-77
2021/04/19 01:07:48;;;;;;;12.10;9.07;;;13.50;58.80;;;;;;6227897;23;20376;-76
2021/04/19 01:10:14;;;;;;;11.00;8.18;;;13.50;58.80;;;;;;6227679;23;20047;-77
2021/04/19 01:12:40;;;;;;;13.00;8.23;;;13.40;58.80;;;;;;6228078;23;20436;-76
2021/04/19 01:15:06;;;;;;;13.73;7.85;;;13.40;58.80;;;;;;6217305;23;20016;-76
2021/04/19 01:17:32;;;;;;;13.88;8.27;;;13.40;58.80;;;;;;6227798;23;20425;-76
2021/04/19 01:19:59;;;;;;;10.93;7.57;;;13.40;58.90;;;;;;6217392;23;20431;-78
2021/04/19 01:22:25;;;;;;;12.70;8.10;;;13.40;58.80;;;;;;6228719;23;20051;-77
2021/04/19 01:24:51;;;;;;;10.73;8.15;;;13.40;58.80;;;;;;6227580;23;20020;-77
2021/04/19 01:27:17;;;;;;;12.85;8.07;;;13.40;58.80;;;;;;6218367;23;20088;-78
2021/04/19 01:29:43;;;;;;;11.70;7.43;;;13.30;58.70;;;;;;6228249;23;20046;-76
2021/04/19 01:32:09;;;;;;;10.95;7.10;;;13.30;58.80;;;;;;6227706;23;20026;-75
2021/04/19 01:34:35;;;;;;;12.00;7.68;;;13.30;58.90;;;;;;6227857;23;20040;-76
2021/04/19 01:37:01;;;;;;;13.43;7.93;;;13.30;58.90;;;;;;6227830;23;20016;-76
2021/04/19 01:39:27;;;;;;;11.40;7.68;;;13.30;59.00;;;;;;6217750;23;20023;-76
2021/04/19 01:41:53;;;;;;;12.90;7.70;;;13.30;59.10;;;;;;6227403;23;20360;-76
2021/04/19 01:44:18;;;;;;;12.88;7.75;;;13.30;59.10;;;;;;6228143;23;20031;-75
2021/04/19 01:46:46;;;;;;;9.25;7.45;;;13.30;59.10;;;;;;6228160;23;20039;-76
2021/04/19 01:49:19;;;;;;;14.40;8.60;;;13.30;59.20;;;;;;6227898;23;20070;-76
2021/04/19 01:51:45;;;;;;;11.00;7.30;;;13.30;59.20;;;;;;6227449;23;20016;-77
2021/04/19 01:54:12;;;;;;;10.88;7.78;;;13.30;59.20;;;;;;6227535;23;20426;-76
2021/04/19 01:56:38;;;;;;;9.88;7.50;;;13.20;59.30;;;;;;6227748;23;20013;-75
2021/04/19 01:59:06;;;;;;;9.70;7.53;;;13.20;59.30;;;;;;6227430;23;20112;-76
2021/04/19 02:01:34;;;;;;;14.70;8.50;;;13.20;59.30;;;;;;6227065;23;20325;-76
2021/04/19 02:04:18;;;;;;;12.73;7.57;;;13.20;60.00;;;;;;6226811;23;20020;-77
2021/04/19 02:07:16;;;;;;;10.18;7.07;;;13.20;59.50;;;;;;6217779;23;20031;-75
2021/04/19 02:09:53;;;;;;;10.23;7.68;;;13.20;59.50;;;;;;6186557;23;20313;-77
2021/04/19 02:12:35;;;;;;;11.52;7.55;;;13.20;59.70;;;;;;6227284;23;20283;-76
2021/04/19 02:15:05;;;;;;;11.18;7.40;;;13.10;59.70;;;;;;6227393;23;20421;-76
2021/04/19 02:17:31;;;;;;;10.60;7.72;;;13.20;59.70;;;;;;6226682;23;20012;-76
2021/04/19 02:20:12;;;;;;;13.18;7.93;;;13.10;59.80;;;;;;6218394;23;20071;-76
2021/04/19 02:22:44;;;;;;;13.48;8.02;;;13.20;59.80;;;;;;6217651;23;20017;-76
2021/04/19 02:25:26;;;;;;;12.77;8.52;;;13.10;59.90;;;;;;6227620;23;20020;-76
2021/04/19 02:28:04;;;;;;;12.68;7.97;;;13.10;60.00;;;;;;6221727;23;20041;-76
2021/04/19 02:30:40;;;;;;;10.95;7.60;;;13.20;60.10;;;;;;6229441;23;20091;-75
2021/04/19 02:33:14;;;;;;;11.40;8.15;;;13.10;60.20;;;;;;6229439;23;20016;-76
2021/04/19 02:35:43;;;;;;;10.68;8.13;;;13.10;60.20;;;;;;6229898;23;20025;-76
2021/04/19 02:38:12;;;;;;;13.27;8.63;;;13.10;60.10;;;;;;6219409;23;20024;-76
2021/04/19 02:40:39;;;;;;;13.77;8.70;;;13.10;60.10;;;;;;6229269;23;20012;-76
2021/04/19 02:43:06;;;;;;;13.80;9.45;;;13.20;60.20;;;;;;6229121;23;20024;-75
2021/04/19 02:45:33;;;;;;;11.73;8.73;;;13.10;60.20;;;;;;6230292;23;20016;-75
2021/04/19 02:48:00;;;;;;;12.43;8.73;;;13.10;60.10;;;;;;6219714;23;20012;-76
2021/04/19 02:50:27;;;;;;;14.90;9.57;;;13.10;60.20;;;;;;6229403;23;20008;-75
2021/04/19 02:52:54;;;;;;;14.18;9.20;;;13.10;60.40;;;;;;6230132;23;20092;-76
2021/04/19 02:55:27;;;;;;;13.13;9.23;;;13.10;60.40;;;;;;6229438;23;20090;-77
2021/04/19 02:58:04;;;;;;;14.77;8.90;;;13.10;60.50;;;;;;6229174;23;20070;-76
2021/04/19 03:00:42;;;;;;;14.52;9.95;;;13.10;60.60;;;;;;6229188;23;20021;-75
2021/04/19 03:03:12;;;;;;;13.65;9.85;;;13.10;60.70;;;;;;6219245;23;20013;-76
2021/04/19 03:05:40;;;;;;;12.05;9.82;;;13.10;60.70;;;;;;6220265;23;20150;-76
2021/04/19 03:08:12;;;;;;;13.30;9.95;;;13.10;60.80;;;;;;6228865;23;20338;-75
2021/04/19 03:10:44;;;;;;;15.68;10.23;;;13.20;60.90;;;;;;6228890;23;20036;-76
2021/04/19 03:13:12;;;;;;;15.55;10.48;;;13.10;61.00;;;;;;6218827;23;20443;-76
2021/04/19 03:15:41;;;;;;;14.70;11.02;;;13.20;61.10;;;;;;6229076;23;20016;-76
2021/04/19 03:18:12;;;;;;;18.08;11.63;;;13.10;61.20;;;;;;6229186;23;20067;-75
2021/04/19 03:21:05;;;;;;;16.52;11.38;;;13.10;61.20;;;;;;6228831;23;20087;-77
2021/04/19 03:23:36;;;;;;;13.93;10.02;;;13.20;61.30;;;;;;6214043;23;20016;-76
2021/04/19 03:26:04;;;;;;;14.52;11.02;;;13.10;61.40;;;;;;6229156;23;20016;-76
2021/04/19 03:28:33;;;;;;;15.93;10.57;;;13.20;61.50;;;;;;6219190;23;20020;-77
2021/04/19 03:31:02;;;;;;;13.05;10.65;;;13.20;61.60;;;;;;6228913;23;20020;-76
2021/04/19 03:33:29;;;;;;;15.77;11.52;;;13.10;61.60;;;;;;6202741;23;20063;-77
2021/04/19 03:35:55;;;;;;;16.08;11.85;;;13.10;61.60;;;;;;6218821;23;20044;-77
2021/04/19 03:38:22;;;;;;;15.02;11.88;;;13.10;61.70;;;;;;6229017;23;20023;-75
2021/04/19 03:40:51;;;;;;;19.05;12.18;;;13.10;61.70;;;;;;6228249;23;20375;-75
2021/04/19 03:43:20;;;;;;;16.63;12.77;;;13.10;61.80;;;;;;6229526;23;20017;-76
2021/04/19 03:45:50;;;;;;;13.80;10.85;;;13.20;61.80;;;;;;6228613;23;20016;-76
2021/04/19 03:48:19;;;;;;;16.30;13.05;;;13.10;61.80;;;;;;6229255;23;20016;-76
2021/04/19 03:51:02;;;;;;;19.38;13.15;;;13.10;62.40;;;;;;6228409;23;20302;-76
2021/04/19 03:53:30;;;;;;;16.30;12.35;;;13.10;61.80;;;;;;6203429;23;20090;-76
2021/04/19 03:55:58;;;;;;;20.50;13.98;;;13.10;61.80;;;;;;6229373;23;20027;-75
2021/04/19 03:58:27;;;;;;;16.45;13.10;;;13.10;61.80;;;;;;6228735;23;20021;-76
2021/04/19 04:00:54;;;;;;;17.90;12.80;;;13.10;61.80;;;;;;6228985;23;20027;-76
2021/04/19 04:03:21;;;;;;;18.02;13.40;;;13.10;61.80;;;;;;6228700;23;20016;-77
2021/04/19 04:05:48;;;;;;;15.98;12.98;;;13.10;61.90;;;;;;6228562;23;20071;-76
2021/04/19 04:08:16;;;;;;;17.35;13.93;;;13.10;61.90;;;;;;6228220;23;20012;-77
2021/04/19 04:10:42;;;;;;;15.75;13.25;;;13.10;61.90;;;;;;6228585;23;20027;-77
2021/04/19 04:13:08;;;;;;;19.02;14.18;;;13.10;61.90;;;;;;6228958;23;20020;-76
2021/04/19 04:15:34;;;;;;;19.45;14.25;;;13.10;61.90;;;;;;6228923;23;20425;-75
2021/04/19 04:17:59;;;;;;;17.25;14.00;;;13.10;61.90;;;;;;6228745;23;20082;-76
2021/04/19 04:20:26;;;;;;;22.10;13.70;;;13.00;62.10;;;;;;6227894;23;20079;-73
2021/04/19 04:22:52;;;;;;;17.00;12.30;;;13.10;62.30;;;;;;6229190;23;20024;-78
2021/04/19 04:25:18;;;;;;;16.67;12.63;;;13.10;62.70;;;;;;6228395;23;20098;-75
2021/04/19 04:27:56;;;;;;;18.52;11.63;;;13.10;62.80;;;;;;6223100;23;20020;-78
2021/04/19 04:34:08;;;;;;;16.38;10.77;;;13.50;62.60;;;;;;6217916;23;20074;-77
2021/04/19 04:36:38;;;;;;;17.17;10.30;;;13.70;61.90;;;;;;6227839;23;20027;-78
2021/04/19 04:39:04;;;;;;;14.10;9.55;;;13.90;61.70;;;;;;6192276;23;20012;-73
2021/04/19 04:41:53;;;;;;;13.20;10.05;;;14.10;61.40;;;;;;6227979;23;20017;-78
2021/04/19 04:44:36;;;;;;;19.75;8.65;;;14.40;61.20;;;;;;6227340;23;20013;-79
2021/04/19 04:47:40;;;;;;;18.20;7.47;;;14.70;60.90;;;;;;6228255;23;20020;-83
2021/04/19 04:50:08;;;;;;;14.05;7.22;;;15.00;60.50;;;;;;6227521;23;20016;-75
2021/04/19 04:52:43;;;;;;;12.60;6.93;;;15.20;60.30;;;;;;6227572;23;20020;-74
2021/04/19 04:55:12;;;;;;;12.82;6.22;;;15.40;60.10;;;;;;6228291;23;20017;-74
2021/04/19 04:57:38;;;;;;;15.43;6.97;;;15.60;59.90;;;;;;6190179;23;20021;-74
2021/04/19 05:00:05;;;;;;;11.23;5.72;;;15.80;59.80;;;;;;6227750;23;20019;-74
2021/04/19 05:02:32;;;;;;;12.85;6.45;;;15.90;59.70;;;;;;6227788;23;20043;-73
2021/04/19 05:04:58;;;;;;;10.32;5.82;;;15.90;59.80;;;;;;6218103;23;20033;-70
2021/04/19 05:07:25;;;;;;;12.52;6.20;;;16.00;60.00;;;;;;6202402;23;20020;-75
2021/04/19 05:09:54;;;;;;;8.88;5.25;;;16.00;60.00;;;;;;6217962;23;20016;-78
2021/04/19 05:12:20;;;;;;;12.27;4.88;;;16.00;60.00;;;;;;6227653;23;20016;-77
2021/04/19 05:15:00;;;;;;;15.02;5.25;;;16.10;60.10;;;;;;6201618;23;20102;-74
2021/04/19 05:17:33;;;;;;;10.73;4.50;;;16.20;59.20;;;;;;6226313;23;20023;-79
2021/04/19 05:19:58;;;;;;;11.97;4.80;;;16.30;60.30;;;;;;6227951;23;20087;-79
2021/04/19 05:23:21;;;;;;;14.65;4.55;;;16.40;60.50;;;;;;6227603;23;20040;-80
2021/04/19 05:26:20;;;;;;;8.07;4.15;;;16.60;60.70;;;;;;6227127;23;20009;-79
2021/04/19 05:28:55;;;;;;;9.38;4.05;;;16.80;60.70;;;;;;6190273;23;20021;-80
2021/04/19 05:31:52;;;;;;;;;;;;;;;;;;;;;
2021/04/19 05:34:30;;;;;;;10.57;4.80;;;17.10;60.20;;;;;;6215708;23;20357;-79
2021/04/19 05:47:34;;;;;;;9.98;3.95;;;17.20;59.80;;;;;;6135327;23;20412;-76
2021/04/19 05:50:00;;;;;;;11.73;4.00;;;17.10;60.40;;;;;;6126834;23;20018;-78
2021/04/19 05:52:26;;;;;;;13.68;4.63;;;17.10;60.30;;;;;;6135937;23;20135;-76
2021/04/19 05:54:52;;;;;;;13.60;3.92;;;17.20;60.20;;;;;;6158853;23;20090;-77
2021/04/19 05:57:39;;;;;;;14.65;4.30;;;17.30;60.10;;;;;;6227600;23;20017;-76
2021/04/19 06:00:09;;;;;;;15.75;4.60;;;17.40;60.10;;;;;;6226532;23;20131;-81
2021/04/19 06:02:59;;;;;;;18.45;3.55;;;17.50;60.00;;;;;;6226234;23;20009;-81
2021/04/19 06:05:43;;;;;;;20.40;4.65;;;17.60;59.70;;;;;;6226397;23;20013;-81
2021/04/19 06:08:40;;;;;;;13.95;4.88;;;17.60;59.50;;;;;;6227672;23;20454;-81
2021/04/19 06:11:33;;;;;;;15.10;4.93;;;17.30;59.40;;;;;;6215642;23;20325;-78
2021/04/19 06:14:01;;;;;;;14.73;5.28;;;17.50;59.50;;;;;;6217626;23;20070;-78
2021/04/19 06:16:28;;;;;;;13.30;5.05;;;17.50;59.30;;;;;;6227001;23;20016;-81
2021/04/19 06:19:00;;;;;;;21.75;5.07;;;17.60;59.30;;;;;;6227401;23;20008;-80
2021/04/19 06:21:30;;;;;;;11.07;4.90;;;17.60;58.90;;;;;;6215669;23;20016;-80
2021/04/19 06:24:02;;;;;;;14.88;4.32;;;17.60;58.80;;;;;;6226966;23;20078;-79
2021/04/19 06:26:35;;;;;;;12.73;4.85;;;17.60;58.50;;;;;;6216127;23;20059;-79
2021/04/19 06:29:06;;;;;;;14.95;5.25;;;17.60;58.50;;;;;;6216164;23;20414;-78
2021/04/19 06:31:49;;;;;;;12.18;5.28;;;17.50;58.70;;;;;;6226043;23;20430;-74
2021/04/19 06:34:17;;;;;;;14.50;5.18;;;17.40;58.90;;;;;;6227004;23;20012;-78
2021/04/19 06:37:37;;;;;;;9.90;4.70;;;17.40;59.20;;;;;;6227082;23;20009;-78
2021/04/19 06:40:40;;;;;;;16.08;5.45;;;17.30;59.60;;;;;;6215655;23;20012;-83
2021/04/19 06:43:13;;;;;;;7.32;4.10;;;17.20;60.00;;;;;;6217728;23;20013;-79
2021/04/19 06:45:45;;;;;;;12.90;4.72;;;17.10;60.50;;;;;;6216275;23;20090;-79
2021/04/19 06:48:24;;;;;;;12.35;4.70;;;17.10;60.90;;;;;;6227202;23;20015;-79
2021/04/19 06:50:57;;;;;;;15.73;4.82;;;17.00;60.90;;;;;;6190731;23;20362;-79
2021/04/19 06:53:25;;;;;;;14.18;4.57;;;17.00;61.80;;;;;;6217124;23;20283;-77
2021/04/19 06:55:58;;;;;;;14.00;4.93;;;16.90;61.70;;;;;;6225726;23;20012;-79
2021/04/19 06:58:38;;;;;;;11.10;5.22;;;16.90;61.60;;;;;;6215609;23;20016;-76
2021/04/19 07:01:04;;;;;;;10.38;4.47;;;16.80;61.70;;;;;;6215972;23;20024;-76
2021/04/19 07:03:31;;;;;;;11.38;5.03;;;16.80;62.40;;;;;;6227154;23;20041;-77
2021/04/19 07:05:58;;;;;;;14.45;5.47;;;16.80;62.30;;;;;;6227184;23;20402;-78
2021/04/19 07:08:46;;;;;;;12.45;7.35;;;16.80;62.10;;;;;;6226677;23;20074;-79
2021/04/19 07:11:55;;;;;;;16.17;7.90;;;16.80;62.00;;;;;;6225908;23;20013;-79
2021/04/19 07:14:25;;;;;;;11.65;7.15;;;16.70;63.20;;;;;;6225658;23;20128;-80
2021/04/19 07:16:51;;;;;;;11.07;7.75;;;16.60;63.50;;;;;;6228532;23;20027;-74
2021/04/19 07:19:18;;;;;;;13.90;8.00;;;16.60;64.30;;;;;;6228164;23;20016;-76
2021/04/19 07:21:56;;;;;;;12.65;7.30;;;16.60;64.90;;;;;;6227934;23;20024;-80
2021/04/19 07:24:22;;;;;;;11.20;6.93;;;16.50;65.30;;;;;;6218041;23;20032;-77
2021/04/19 07:26:49;;;;;;;10.57;6.95;;;16.50;65.90;;;;;;6226856;23;20019;-74
2021/04/19 07:44:48;;;;;;;7.35;5.03;;;16.40;65.60;;;;;;6218065;23;20015;-70
2021/04/19 07:50:37;;;;;;;21.42;10.38;;;16.40;65.90;;;;;;6217823;23;20016;-79
2021/04/19 07:53:09;;;;;;;25.50;11.63;;;16.40;66.30;;;;;;6228482;23;20067;-76
2021/04/19 08:00:09;;;;;;;;;;;;;;;;;;;;;
2021/04/19 08:06:46;;;;;;;11.80;7.72;;;16.50;66.10;;;;;;6068305;23;20041;-73
2021/04/19 08:17:27;;;;;;;14.95;7.57;;;16.50;62.20;;;;;;6156254;23;20012;-78
2021/04/19 08:19:53;;;;;;;13.02;7.25;;;16.40;61.90;;;;;;6130859;23;20442;-77
2021/04/19 08:22:26;;;;;;;15.95;7.70;;;16.30;62.70;;;;;;6143888;23;20024;-78
2021/04/19 08:25:25;;;;;;;14.15;7.40;;;16.30;62.30;;;;;;6191807;23;20016;-77
2021/04/19 08:28:10;;;;;;;14.30;8.35;;;16.30;63.20;;;;;;6193736;23;20008;-77
2021/04/19 08:30:38;;;;;;;11.50;7.63;;;16.40;61.90;;;;;;6227462;23;20418;-77
2021/04/19 08:33:06;;;;;;;14.63;7.53;;;16.40;61.20;;;;;;6202039;23;20452;-78
2021/04/19 08:35:32;;;;;;;10.13;6.30;;;16.40;61.30;;;;;;6228158;23;20012;-76
2021/04/19 08:38:00;;;;;;;12.95;6.95;;;16.40;61.50;;;;;;6227869;23;20104;-76
2021/04/19 08:40:32;;;;;;;10.80;6.57;;;16.40;61.30;;;;;;6226420;23;20426;-77
2021/04/19 08:43:13;;;;;;;16.55;7.30;;;16.40;61.30;;;;;;6226759;23;20084;-78
2021/04/19 08:45:42;;;;;;;13.25;6.82;;;16.40;61.00;;;;;;6228446;23;20094;-77
2021/04/19 08:48:12;;;;;;;10.10;6.10;;;16.30;61.10;;;;;;6226159;23;20073;-79
2021/04/19 08:50:40;;;;;;;11.23;6.32;;;16.30;61.10;;;;;;6217841;23;20008;-78
2021/04/19 08:53:09;;;;;;;9.43;6.10;;;16.30;61.20;;;;;;6227463;23;20091;-76
2021/04/19 08:55:36;;;;;;;8.52;6.35;;;16.30;61.30;;;;;;6227198;23;20043;-77
2021/04/19 08:58:08;;;;;;;7.00;5.07;;;16.20;61.20;;;;;;6224226;23;20017;-78
2021/04/19 09:00:35;;;;;;;9.05;5.07;;;16.20;61.30;;;;;;6224362;23;20024;-75
2021/04/19 09:03:01;;;;;;;7.35;5.05;;;16.20;61.30;;;;;;6224223;23;20078;-75
2021/04/19 09:05:27;;;;;;;8.48;5.25;;;16.20;61.40;;;;;;6224045;23;20020;-76
2021/04/19 09:08:12;;;;;;;8.60;5.43;;;16.20;61.30;;;;;;6227232;23;20016;-75
2021/04/19 09:10:59;;;;;;;6.30;4.75;;;16.20;61.30;;;;;;6226148;23;20124;-76
2021/04/19 09:13:27;;;;;;;9.85;4.85;;;16.20;61.10;;;;;;6227613;23;20440;-76
2021/04/19 09:15:53;;;;;;;5.97;4.60;;;16.10;61.50;;;;;;6226534;23;20020;-76
2021/04/19 09:18:26;;;;;;;5.55;4.22;;;16.20;61.80;;;;;;6227176;23;20021;-74
2021/04/19 09:20:54;;;;;;;8.35;4.88;;;16.20;62.60;;;;;;6218000;23;20287;-77
2021/04/19 09:23:28;;;;;;;6.85;4.65;;;16.20;64.30;;;;;;6227205;23;20016;-74
2021/04/19 09:25:55;;;;;;;10.82;4.78;;;16.30;63.30;;;;;;6227763;23;20024;-75
2021/04/19 09:28:39;;;;;;;11.27;4.70;;;16.30;63.00;;;;;;6220145;23;20016;-76
2021/04/19 09:31:09;;;;;;;8.77;6.13;;;16.30;63.00;;;;;;6225577;23;20298;-80
2021/04/19 09:33:36;;;;;;;12.70;7.07;;;16.40;62.60;;;;;;6226451;23;20317;-76
2021/04/19 09:36:03;;;;;;;9.20;6.95;;;16.30;61.70;;;;;;6227791;23;20016;-75
2021/04/19 09:38:52;;;;;;;9.05;7.22;;;16.40;61.40;;;;;;6217036;23;20021;-76
2021/04/19 09:41:20;;;;;;;14.55;6.95;;;16.30;62.10;;;;;;6224336;23;20095;-78
2021/04/19 09:43:54;;;;;;;9.20;6.65;;;16.30;62.10;;;;;;6223913;23;20492;-76
2021/04/19 09:46:20;;;;;;;11.02;6.60;;;16.30;62.50;;;;;;6224165;23;20021;-77
2021/04/19 09:48:52;;;;;;;10.18;6.40;;;16.30;62.70;;;;;;6223306;23;20051;-77
2021/04/19 09:51:27;;;;;;;11.95;6.43;;;16.30;63.10;;;;;;6223420;23;20023;-75
2021/04/19 09:54:00;;;;;;;16.42;6.88;;;16.30;63.20;;;;;;6225838;23;20016;-75
2021/04/19 09:56:29;;;;;;;19.63;7.80;;;16.40;63.80;;;;;;6227129;23;20500;-73
2021/04/19 09:58:56;;;;;;;19.88;7.30;;;16.40;64.50;;;;;;6228352;23;20368;-76
2021/04/19 10:01:24;;;;;;;21.75;7.80;;;16.40;65.00;;;;;;6226888;23;20020;-76
2021/04/19 10:03:51;;;;;;;23.33;7.75;;;16.40;65.40;;;;;;6226231;23;20020;-75
2021/04/19 10:06:24;;;;;;;17.50;7.45;;;16.40;65.30;;;;;;6227907;23;20044;-76
2021/04/19 10:08:51;;;;;;;16.30;6.65;;;16.40;65.40;;;;;;6200776;23;20115;-78
2021/04/19 10:11:25;;;;;;;21.05;7.18;;;16.40;65.50;;;;;;6226820;23;20425;-74
2021/04/19 10:13:52;;;;;;;20.27;7.20;;;16.50;65.60;;;;;;6226952;23;20043;-76
2021/04/19 10:16:18;;;;;;;15.18;6.30;;;16.40;65.30;;;;;;6226655;23;20484;-78
2021/04/19 10:18:52;;;;;;;18.17;7.18;;;16.40;65.30;;;;;;6227164;23;20075;-77
2021/04/19 10:21:31;;;;;;;15.70;7.20;;;16.50;65.30;;;;;;6226979;23;20043;-77
2021/04/19 10:23:58;;;;;;;18.52;8.07;;;16.50;65.10;;;;;;6226900;23;20020;-76
2021/04/19 10:26:39;;;;;;;16.33;8.00;;;16.50;65.00;;;;;;6227100;23;20104;-77
2021/04/19 10:29:16;;;;;;;12.85;8.57;;;16.50;64.50;;;;;;6197585;23;20020;-75
2021/04/19 10:31:50;;;;;;;15.77;9.35;;;16.40;64.00;;;;;;6215852;23;20099;-77
2021/04/19 10:34:16;;;;;;;;;;;16.40;63.80;;;;;;6213945;23;20070;-75
2021/04/19 10:36:54;;;;;;;15.05;8.63;;;16.40;64.10;;;;;;6223456;23;19920;-77
2021/04/19 10:39:26;;;;;;;12.82;9.65;;;16.40;63.70;;;;;;6226976;23;20481;-75
2021/04/19 10:41:57;;;;;;;14.18;9.75;;;16.40;63.40;;;;;;6227168;23;20020;-78
2021/04/19 10:44:42;;;;;;;11.82;9.50;;;16.40;63.10;;;;;;6226458;23;20039;-77
2021/04/19 10:47:10;;;;;;;12.63;10.40;;;16.40;62.80;;;;;;6227500;23;20016;-73
2021/04/19 10:49:37;;;;;;;12.07;10.63;;;16.40;62.60;;;;;;6226513;23;20505;-72
2021/04/19 10:52:10;;;;;;;15.73;11.15;;;16.40;62.70;;;;;;6229138;23;20013;-75
2021/04/19 10:54:42;;;;;;;12.15;10.43;;;16.30;62.90;;;;;;6229358;23;20082;-76
2021/04/19 10:57:18;;;;;;;15.27;10.93;;;16.30;62.90;;;;;;6229117;23;20017;-76
2021/04/19 10:59:45;;;;;;;12.38;10.75;;;16.30;62.60;;;;;;6228888;23;20012;-69
2021/04/19 11:02:11;;;;;;;12.60;10.15;;;16.30;62.20;;;;;;6229328;23;20016;-75
2021/04/19 11:04:38;;;;;;;12.65;9.70;;;16.30;62.30;;;;;;6228616;23;20043;-75
2021/04/19 11:07:27;;;;;;;13.57;9.50;;;16.30;62.50;;;;;;6228750;23;20044;-77
2021/04/19 11:10:11;;;;;;;11.07;8.50;;;16.30;62.70;;;;;;6228698;23;20031;-77
2021/04/19 11:12:38;;;;;;;12.07;9.05;;;16.30;62.90;;;;;;6229127;23;20110;-73
2021/04/19 11:15:10;;;;;;;12.35;9.25;;;16.30;63.00;;;;;;6228994;23;20405;-76
2021/04/19 11:17:37;;;;;;;11.13;8.35;;;16.40;63.30;;;;;;6218834;23;20365;-79
2021/04/19 11:20:25;;;;;;;12.38;9.10;;;16.30;63.30;;;;;;6228699;23;20306;-76
2021/04/19 11:22:51;;;;;;;11.73;8.63;;;16.40;63.40;;;;;;6191246;23;20016;-79
2021/04/19 11:25:28;;;;;;;13.00;9.07;;;16.40;63.30;;;;;;6202761;23;20009;-78
2021/04/19 11:28:18;;;;;;;9.75;7.97;;;16.40;63.40;;;;;;6190296;23;20014;-78
2021/04/19 11:30:44;;;;;;;11.90;8.13;;;16.40;63.30;;;;;;6217675;23;20012;-78
2021/04/19 11:33:19;;;;;;;11.27;8.50;;;16.40;63.30;;;;;;6228705;23;20017;-80
2021/04/19 11:35:47;;;;;;;11.98;8.82;;;16.40;63.20;;;;;;6229203;23;20426;-80
2021/04/19 11:38:22;;;;;;;11.13;8.35;;;16.40;63.10;;;;;;6228044;23;20024;-79
2021/04/19 11:40:56;;;;;;;11.52;8.23;;;16.40;62.90;;;;;;6227576;23;20431;-78
2021/04/19 11:43:28;;;;;;;11.73;8.48;;;16.40;62.80;;;;;;6228736;23;20313;-77
2021/04/19 11:46:05;;;;;;;10.05;8.50;;;16.40;62.60;;;;;;6227471;23;20031;-80
2021/04/19 11:48:33;;;;;;;9.95;8.13;;;16.40;62.30;;;;;;6227802;23;20070;-80
2021/04/19 11:51:00;;;;;;;9.75;8.30;;;16.40;62.40;;;;;;6228715;23;20057;-78
2021/04/19 11:53:29;;;;;;;10.80;8.07;;;16.40;62.30;;;;;;6219061;23;20377;-79
2021/04/19 11:55:55;;;;;;;10.80;8.38;;;16.40;62.20;;;;;;6228537;23;20027;-80
2021/04/19 11:58:22;;;;;;;9.73;7.65;;;16.40;62.20;;;;;;6219235;23;20013;-78
2021/04/19 12:00:51;;;;;;;10.43;7.55;;;16.30;62.10;;;;;;6227674;23;20008;-78
2021/04/19 12:03:18;;;;;;;8.02;7.22;;;16.40;61.80;;;;;;6217447;23;20017;-79
2021/04/19 12:05:44;;;;;;;12.23;7.47;;;16.40;61.40;;;;;;6228724;23;20024;-79
2021/04/19 12:08:11;;;;;;;8.60;7.70;;;16.30;61.40;;;;;;6219276;23;20031;-79
2021/04/19 12:10:40;;;;;;;9.73;6.97;;;16.40;60.70;;;;;;6229385;23;20028;-79
2021/04/19 12:13:10;;;;;;;8.38;6.88;;;16.30;60.90;;;;;;6228806;23;20071;-77
2021/04/19 12:15:36;;;;;;;8.95;7.00;;;16.30;61.10;;;;;;6227694;23;20078;-79
2021/04/19 12:18:03;;;;;;;7.25;6.47;;;16.30;61.10;;;;;;6228536;23;20016;-80
2021/04/19 12:20:28;;;;;;;9.10;7.13;;;16.30;61.30;;;;;;6228944;23;20437;-79
2021/04/19 12:22:54;;;;;;;9.07;7.07;;;16.30;61.20;;;;;;6219343;23;20013;-81
2021/04/19 12:25:20;;;;;;;8.93;6.43;;;16.30;61.10;;;;;;6228528;23;20021;-80
2021/04/19 12:27:46;;;;;;;7.78;5.97;;;16.30;61.10;;;;;;6218223;23;20027;-78
2021/04/19 12:30:12;;;;;;;8.63;7.65;;;16.30;61.30;;;;;;6228109;23;20020;-80
2021/04/19 12:32:58;;;;;;;9.48;6.43;;;16.30;61.10;;;;;;6218049;23;20016;-81
2021/04/19 12:35:37;;;;;;;10.77;6.63;;;16.30;61.00;;;;;;6217266;23;20090;-79
2021/04/19 12:38:09;;;;;;;10.68;6.90;;;16.30;61.50;;;;;;6191971;23;20012;-81
2021/04/19 12:40:48;;;;;;;8.25;6.40;;;16.30;61.60;;;;;;6193359;23;20027;-80
2021/04/19 12:43:26;;;;;;;13.02;6.75;;;16.30;61.90;;;;;;6192478;23;20032;-80
2021/04/19 12:45:57;;;;;;;8.07;6.18;;;16.30;62.00;;;;;;6191473;23;20016;-80
2021/04/19 12:48:25;;;;;;;10.23;6.70;;;16.30;62.20;;;;;;6228436;23;20012;-77
2021/04/19 12:50:51;;;;;;;13.63;6.20;;;16.30;62.40;;;;;;6227891;23;20044;-78
2021/04/19 12:53:20;;;;;;;13.73;5.50;;;16.40;62.50;;;;;;6227664;23;20040;-81
2021/04/19 12:56:16;;;;;;;11.45;5.75;;;16.40;62.60;;;;;;6215654;23;20302;-82
2021/04/19 12:58:47;;;;;;;13.63;5.93;;;16.60;62.90;;;;;;6192470;23;20038;-84
2021/04/19 13:01:16;;;;;;;11.45;5.53;;;16.80;62.60;;;;;;6216841;23;20013;-80
2021/04/19 13:04:17;;;;;;;10.45;4.75;;;16.90;62.50;;;;;;6191493;23;20427;-82
2021/04/19 13:06:46;;;;;;;6.05;3.85;;;17.10;62.60;;;;;;6191376;23;20017;-81
2021/04/19 13:09:13;;;;;;;8.57;4.05;;;17.10;62.30;;;;;;6191585;23;20448;-81
2021/04/19 13:11:41;;;;;;;6.43;3.65;;;17.20;62.30;;;;;;6227604;23;20016;-82
2021/04/19 13:14:16;;;;;;;7.55;4.00;;;17.20;62.40;;;;;;6191485;23;20012;-81
2021/04/19 13:16:47;;;;;;;10.15;4.28;;;17.20;62.50;;;;;;6226553;23;20013;-81
2021/04/19 13:19:20;;;;;;;11.88;5.47;;;17.20;62.50;;;;;;6190693;23;20083;-81
2021/04/19 13:21:55;;;;;;;13.73;5.72;;;17.20;61.90;;;;;;6216786;23;20008;-81
2021/04/19 13:24:31;;;;;;;15.25;5.85;;;17.20;61.10;;;;;;6226448;23;20009;-79
2021/04/19 13:26:57;;;;;;;10.48;5.55;;;17.20;60.90;;;;;;6216089;23;20298;-80
2021/04/19 13:29:25;;;;;;;10.70;5.47;;;17.20;61.20;;;;;;6201159;23;20020;-81
2021/04/19 13:31:51;;;;;;;11.02;4.63;;;17.30;61.40;;;;;;6201181;23;20043;-77
2021/04/19 13:34:40;;;;;;;13.82;5.45;;;17.30;61.40;;;;;;6227403;23;20009;-80
2021/04/19 13:40:55;;;;;;;12.27;6.25;;;17.30;60.90;;;;;;6150562;23;20044;-80
2021/04/19 13:43:29;;;;;;;11.48;6.35;;;17.30;60.30;;;;;;6186993;23;20096;-81
2021/04/19 13:46:18;;;;;;;8.90;5.70;;;17.40;60.30;;;;;;6166344;23;20017;-80
2021/04/19 13:48:52;;;;;;;11.30;6.10;;;17.40;60.50;;;;;;6166205;23;20024;-80
2021/04/19 13:51:20;;;;;;;10.82;4.85;;;17.40;60.70;;;;;;6166904;23;20404;-80
2021/04/19 13:53:54;;;;;;;11.40;5.55;;;17.30;60.80;;;;;;6191290;23;20071;-81
2021/04/19 13:56:27;;;;;;;14.02;5.30;;;17.30;61.00;;;;;;6190610;23;20020;-81